Time;durP1;ratioP1;P1;durP2;ratioP2;P2;SDS_P1;SDS_P2;PMS_P1;PMS_P2;Temp;Humidity;BMP_temperature;BMP_pressure;BME280_temperature;BME280_humidity;BME280_pressure;Samples;Min_cycle;Max_cycle;Signal;HPM_P1;HPM_P2
2023/02/24 00:02:13;;;;;;;6.30;2.10;;;6.80;99.90;;;;;;5010023;28;20458;-69
2023/02/24 00:04:41;;;;;;;12.63;2.10;;;6.90;99.90;;;;;;5008848;28;20462;-71
2023/02/24 00:07:09;;;;;;;5.83;1.93;;;6.80;99.90;;;;;;4996439;28;20583;-71
2023/02/24 00:09:36;;;;;;;4.70;2.57;;;6.80;99.90;;;;;;5016163;28;20467;-71
2023/02/24 00:12:07;;;;;;;4.30;2.70;;;6.80;99.90;;;;;;5025181;28;21071;-71
2023/02/24 00:14:39;;;;;;;3.93;2.30;;;6.80;99.90;;;;;;5008929;28;20460;-71
2023/02/24 00:17:07;;;;;;;3.00;1.80;;;7.00;99.90;;;;;;5005120;28;20490;-71
2023/02/24 00:19:34;;;;;;;2.53;2.30;;;6.90;99.90;;;;;;5008906;28;20477;-71
2023/02/24 00:22:03;;;;;;;4.00;1.63;;;6.90;99.90;;;;;;5010977;28;20526;-70
2023/02/24 00:24:30;;;;;;;7.67;3.20;;;6.80;99.90;;;;;;5009458;28;20539;-72
2023/02/24 00:26:59;;;;;;;4.87;3.83;;;6.80;99.90;;;;;;5005750;28;20474;-72
2023/02/24 00:29:27;;;;;;;9.50;2.03;;;6.80;99.90;;;;;;5001861;28;20462;-71
2023/02/24 00:31:58;;;;;;;14.27;2.43;;;6.70;99.90;;;;;;5004316;28;20485;-72
2023/02/24 00:34:26;;;;;;;3.70;2.03;;;6.70;99.90;;;;;;5009764;28;20570;-72
2023/02/24 00:36:53;;;;;;;8.33;2.90;;;6.70;99.90;;;;;;5007620;28;21022;-72
2023/02/24 00:39:29;;;;;;;11.93;2.57;;;6.70;99.90;;;;;;5004039;28;20998;-72
2023/02/24 00:42:03;;;;;;;16.13;3.60;;;6.70;99.90;;;;;;5003138;28;20469;-70
2023/02/24 00:44:31;;;;;;;4.87;2.13;;;6.70;99.90;;;;;;5009441;28;20449;-71
2023/02/24 00:47:01;;;;;;;1.97;1.77;;;6.70;99.90;;;;;;5005369;28;20481;-71
2023/02/24 00:49:29;;;;;;;7.23;2.17;;;6.70;99.90;;;;;;5011744;28;21039;-71
2023/02/24 00:51:56;;;;;;;4.43;1.60;;;6.60;99.90;;;;;;5006442;28;20591;-71
2023/02/24 00:54:26;;;;;;;3.47;2.50;;;6.60;99.90;;;;;;5005782;28;20932;-71
2023/02/24 00:56:54;;;;;;;5.23;1.70;;;6.60;99.90;;;;;;5004269;28;20477;-71
2023/02/24 00:59:22;;;;;;;8.80;2.40;;;6.60;99.90;;;;;;5000872;28;20459;-71
2023/02/24 01:01:50;;;;;;;8.97;4.27;;;6.60;99.90;;;;;;5005666;28;20439;-70
2023/02/24 01:04:20;;;;;;;9.60;2.67;;;6.60;99.90;;;;;;4993222;28;20425;-71
2023/02/24 01:06:49;;;;;;;12.73;2.37;;;6.50;99.90;;;;;;4952271;28;20562;-70
2023/02/24 01:09:18;;;;;;;5.77;2.30;;;6.40;99.90;;;;;;5003365;28;20523;-70
2023/02/24 01:14:35;;;;;;;3.80;1.60;;;6.50;99.90;;;;;;5004106;28;20439;-71
2023/02/24 01:17:02;;;;;;;3.37;1.90;;;6.40;99.90;;;;;;5002664;28;20529;-70
2023/02/24 01:19:32;;;;;;;4.37;2.00;;;6.40;99.90;;;;;;5002336;28;20552;-70
2023/02/24 01:22:00;;;;;;;13.50;3.30;;;6.40;99.90;;;;;;4995374;28;20475;-71
2023/02/24 01:24:27;;;;;;;10.57;4.53;;;6.40;99.90;;;;;;4997854;28;20436;-70
2023/02/24 01:26:56;;;;;;;12.80;3.53;;;6.60;99.90;;;;;;5002498;28;20482;-70
2023/02/24 01:29:22;;;;;;;5.53;2.40;;;6.60;99.90;;;;;;5007144;28;20435;-70
2023/02/24 01:31:56;;;;;;;5.87;2.80;;;6.50;99.90;;;;;;5003770;28;20527;-70
2023/02/24 01:34:23;;;;;;;3.20;2.13;;;6.50;99.90;;;;;;4999780;28;20834;-70
2023/02/24 01:36:52;;;;;;;2.20;2.00;;;6.60;99.90;;;;;;4998696;28;20535;-71
2023/02/24 01:39:19;;;;;;;5.00;2.27;;;6.50;99.90;;;;;;5003991;28;20585;-70
2023/02/24 01:41:51;;;;;;;7.73;3.10;;;6.50;99.90;;;;;;5003054;28;20831;-69
2023/02/24 01:45:02;;;;;;;7.40;2.53;;;6.40;99.90;;;;;;4995118;28;20460;-69
2023/02/24 01:47:30;;;;;;;7.67;4.50;;;6.40;99.90;;;;;;4922519;29;20688;-71
2023/02/24 01:49:57;;;;;;;8.67;3.17;;;6.30;99.90;;;;;;4995006;28;21031;-71
2023/02/24 01:52:30;;;;;;;4.60;3.17;;;6.20;99.90;;;;;;5009203;28;20532;-71
2023/02/24 01:55:01;;;;;;;5.70;3.40;;;6.30;99.90;;;;;;5015637;28;20465;-71
2023/02/24 01:57:31;;;;;;;4.37;2.80;;;6.20;99.90;;;;;;5002318;28;20478;-70
2023/02/24 02:00:09;;;;;;;11.50;2.60;;;6.10;99.90;;;;;;5001205;28;20526;-71
2023/02/24 02:02:37;;;;;;;8.43;2.67;;;6.10;99.90;;;;;;4996832;28;20535;-71
2023/02/24 02:05:08;;;;;;;14.00;3.00;;;6.10;99.90;;;;;;4997348;28;20466;-71
2023/02/24 02:07:39;;;;;;;4.33;1.97;;;6.10;99.90;;;;;;4996016;28;20478;-71
2023/02/24 02:10:09;;;;;;;8.63;1.80;;;6.10;99.90;;;;;;5011753;28;20496;-70
2023/02/24 02:12:42;;;;;;;5.43;2.73;;;6.10;99.90;;;;;;5000896;28;20481;-70
2023/02/24 02:15:12;;;;;;;5.27;1.97;;;6.00;99.90;;;;;;5004888;28;20481;-71
2023/02/24 02:17:50;;;;;;;6.93;2.47;;;5.90;99.90;;;;;;5009672;28;20483;-71
2023/02/24 02:20:46;;;;;;;4.50;2.53;;;5.90;99.90;;;;;;5021129;28;20486;-70
2023/02/24 02:23:49;;;;;;;21.83;4.23;;;5.90;99.90;;;;;;5003155;28;20447;-71
2023/02/24 02:26:34;;;;;;;7.73;3.13;;;5.90;99.90;;;;;;4983783;28;20667;-71
2023/02/24 02:29:30;;;;;;;6.00;2.73;;;6.00;99.90;;;;;;5007929;28;20523;-71
2023/02/24 02:32:40;;;;;;;8.90;4.27;;;5.90;99.90;;;;;;4995902;28;20498;-71
2023/02/24 02:35:17;;;;;;;10.70;3.20;;;5.90;99.90;;;;;;4967721;28;20540;-71
2023/02/24 02:37:52;;;;;;;6.47;2.80;;;5.80;99.90;;;;;;5000798;28;20539;-71
2023/02/24 02:40:23;;;;;;;4.40;2.93;;;5.80;99.90;;;;;;5006405;28;20437;-71
2023/02/24 02:42:58;;;;;;;2.30;2.10;;;5.70;99.90;;;;;;5003951;28;20449;-71
2023/02/24 02:45:29;;;;;;;4.50;3.17;;;5.80;99.90;;;;;;5006260;28;20886;-71
2023/02/24 02:48:03;;;;;;;7.33;3.20;;;5.80;99.90;;;;;;5003492;28;20448;-70
2023/02/24 02:50:39;;;;;;;2.13;1.97;;;5.80;99.90;;;;;;5001888;28;20466;-70
2023/02/24 02:53:13;;;;;;;5.90;3.00;;;5.80;99.90;;;;;;5003743;28;20516;-70
2023/02/24 02:55:48;;;;;;;6.47;2.30;;;5.70;99.90;;;;;;5002530;28;20518;-70
2023/02/24 02:58:20;;;;;;;8.70;2.03;;;5.70;99.90;;;;;;5003679;28;20515;-70
2023/02/24 03:01:00;;;;;;;6.03;2.33;;;5.80;99.90;;;;;;4994505;28;20931;-70
2023/02/24 03:03:32;;;;;;;5.80;2.37;;;5.80;99.90;;;;;;5001549;28;20441;-71
2023/02/24 03:06:06;;;;;;;10.83;3.37;;;5.90;99.90;;;;;;5008093;28;20463;-70
2023/02/24 03:08:37;;;;;;;2.37;2.17;;;5.90;99.90;;;;;;5001236;28;20490;-71
2023/02/24 03:11:11;;;;;;;5.60;2.37;;;5.90;99.90;;;;;;5001960;28;20476;-71
2023/02/24 03:13:41;;;;;;;8.40;2.10;;;5.90;99.90;;;;;;5000664;28;20463;-71
2023/02/24 03:16:10;;;;;;;10.23;3.30;;;6.00;99.90;;;;;;5004343;28;20564;-71
2023/02/24 03:18:43;;;;;;;2.43;2.23;;;6.00;99.90;;;;;;5003495;28;20939;-70
2023/02/24 03:21:17;;;;;;;10.43;2.50;;;5.90;99.90;;;;;;5000374;28;20461;-70
2023/02/24 03:23:48;;;;;;;3.30;2.33;;;6.00;99.90;;;;;;5005524;28;20436;-71
2023/02/24 03:26:20;;;;;;;12.37;5.30;;;5.90;99.90;;;;;;4997880;28;20531;-71
2023/02/24 03:28:58;;;;;;;13.73;2.97;;;5.80;99.90;;;;;;5007077;28;21747;-71
2023/02/24 03:31:28;;;;;;;15.20;4.67;;;5.90;99.90;;;;;;4997294;28;20786;-71
2023/02/24 03:34:04;;;;;;;8.23;2.50;;;5.90;99.90;;;;;;5001137;28;20640;-71
2023/02/24 03:36:33;;;;;;;22.97;3.27;;;5.90;99.90;;;;;;5002416;28;21041;-70
2023/02/24 03:39:01;;;;;;;11.00;3.10;;;6.00;99.90;;;;;;5006836;28;20537;-70
2023/02/24 03:41:34;;;;;;;4.23;2.73;;;5.80;99.90;;;;;;5004681;28;20514;-70
2023/02/24 03:44:05;;;;;;;10.53;3.00;;;5.80;99.90;;;;;;5006396;28;20424;-70
2023/02/24 03:46:32;;;;;;;4.63;2.20;;;5.80;99.90;;;;;;5004981;28;20474;-70
2023/02/24 03:49:07;;;;;;;30.87;4.97;;;5.70;99.90;;;;;;5003681;28;20451;-70
2023/02/24 03:51:36;;;;;;;9.37;2.50;;;5.70;99.90;;;;;;5004626;28;20502;-70
2023/02/24 03:54:12;;;;;;;11.43;4.83;;;5.70;99.90;;;;;;5003295;28;20985;-70
2023/02/24 03:56:55;;;;;;;14.50;3.37;;;5.70;99.90;;;;;;4999417;28;20498;-70
2023/02/24 03:59:33;;;;;;;11.73;3.30;;;5.80;99.90;;;;;;4998476;28;20922;-70
2023/02/24 04:02:05;;;;;;;13.23;3.40;;;5.70;99.90;;;;;;5001553;28;20461;-71
2023/02/24 04:04:38;;;;;;;4.97;1.90;;;5.80;99.90;;;;;;5004534;28;20436;-71
2023/02/24 04:07:14;;;;;;;5.87;3.23;;;5.70;99.90;;;;;;4998969;28;20563;-70
2023/02/24 04:09:47;;;;;;;5.90;3.20;;;5.60;99.90;;;;;;4997743;28;20460;-70
2023/02/24 04:12:19;;;;;;;5.87;3.60;;;5.50;99.90;;;;;;5004816;28;20587;-70
2023/02/24 04:14:50;;;;;;;3.30;1.90;;;5.60;99.90;;;;;;5008910;28;20564;-69
2023/02/24 04:17:24;;;;;;;15.53;3.43;;;5.60;99.90;;;;;;4999589;28;20481;-69
2023/02/24 04:19:56;;;;;;;7.43;2.30;;;5.60;99.90;;;;;;5005937;28;20980;-72
2023/02/24 04:22:26;;;;;;;2.97;2.33;;;5.60;99.90;;;;;;4999788;28;20428;-71
2023/02/24 04:24:58;;;;;;;5.30;2.10;;;5.50;99.90;;;;;;5000207;28;20453;-71
2023/02/24 04:27:28;;;;;;;4.33;2.47;;;5.60;99.90;;;;;;5005615;28;20572;-71
2023/02/24 04:29:59;;;;;;;5.77;2.40;;;5.30;99.90;;;;;;5001802;28;20432;-72
2023/02/24 04:32:29;;;;;;;6.07;2.57;;;5.50;99.90;;;;;;5004921;28;20428;-72
2023/02/24 04:35:02;;;;;;;5.07;2.20;;;5.50;99.90;;;;;;4999667;28;20462;-69
2023/02/24 04:37:32;;;;;;;6.27;2.10;;;5.60;99.90;;;;;;4998086;28;20550;-70
2023/02/24 04:39:59;;;;;;;6.77;1.93;;;5.70;99.90;;;;;;4999186;28;20566;-70
2023/02/24 04:42:27;;;;;;;5.00;2.33;;;5.70;99.90;;;;;;5006401;28;20975;-70
2023/02/24 04:44:57;;;;;;;3.67;1.97;;;5.60;99.90;;;;;;4998848;28;20530;-70
2023/02/24 04:47:27;;;;;;;3.57;2.00;;;5.80;99.90;;;;;;4998970;28;20548;-69
2023/02/24 04:49:54;;;;;;;3.80;1.90;;;5.80;99.90;;;;;;4999603;28;20550;-70
2023/02/24 04:52:22;;;;;;;24.53;2.80;;;5.80;99.90;;;;;;5009661;28;20570;-70
2023/02/24 04:54:50;;;;;;;12.03;3.20;;;5.80;99.90;;;;;;5018715;28;20464;-70
2023/02/24 04:57:17;;;;;;;2.43;2.20;;;5.80;99.90;;;;;;5005692;28;20463;-70
2023/02/24 04:59:45;;;;;;;2.63;1.90;;;5.80;99.90;;;;;;5006041;28;20470;-70
2023/02/24 05:02:14;;;;;;;4.20;1.33;;;5.80;99.90;;;;;;5001032;28;20470;-69
2023/02/24 05:04:41;;;;;;;6.70;2.90;;;5.80;99.90;;;;;;5000056;28;20762;-71
2023/02/24 05:07:11;;;;;;;11.83;2.37;;;5.80;99.90;;;;;;5000305;28;20602;-70
2023/02/24 05:09:39;;;;;;;1.33;1.20;;;5.70;99.90;;;;;;4997984;28;20440;-69
2023/02/24 05:12:10;;;;;;;2.90;2.13;;;5.70;99.90;;;;;;4995656;28;20432;-70
2023/02/24 05:14:38;;;;;;;3.43;1.90;;;5.70;99.90;;;;;;4998803;28;20605;-70
2023/02/24 05:17:05;;;;;;;2.40;2.20;;;5.80;99.90;;;;;;4999237;28;20467;-71
2023/02/24 05:22:17;;;;;;;5.10;2.17;;;5.80;99.90;;;;;;5001952;28;20427;-71
2023/02/24 05:24:46;;;;;;;2.60;1.90;;;5.80;99.90;;;;;;4998817;28;20454;-69
2023/02/24 05:27:16;;;;;;;2.87;1.70;;;5.80;99.90;;;;;;4998476;28;20448;-71
2023/02/24 05:29:43;;;;;;;2.60;2.23;;;5.60;99.90;;;;;;4993227;28;20465;-71
2023/02/24 05:32:10;;;;;;;3.17;2.20;;;5.60;99.90;;;;;;4996473;28;21058;-71
2023/02/24 05:34:38;;;;;;;2.57;1.77;;;5.60;99.90;;;;;;5000419;28;20508;-71
2023/02/24 05:37:09;;;;;;;8.80;2.47;;;5.60;99.90;;;;;;4992909;28;20549;-71
2023/02/24 05:39:36;;;;;;;2.73;2.03;;;5.70;99.90;;;;;;4996993;28;20425;-71
2023/02/24 05:42:05;;;;;;;2.33;2.13;;;5.70;99.90;;;;;;4998578;28;20541;-70
2023/02/24 05:44:35;;;;;;;3.80;1.70;;;5.80;99.90;;;;;;4998619;28;20969;-73
2023/02/24 05:47:04;;;;;;;3.60;1.93;;;5.70;99.90;;;;;;4999306;28;20461;-72
2023/02/24 05:49:32;;;;;;;4.27;2.00;;;5.70;99.90;;;;;;4997206;28;20437;-71
2023/02/24 05:52:06;;;;;;;6.67;1.93;;;5.70;99.90;;;;;;4994504;28;20432;-70
2023/02/24 05:54:34;;;;;;;3.03;1.87;;;5.70;99.90;;;;;;4993584;28;20457;-72
2023/02/24 05:57:03;;;;;;;6.10;2.70;;;5.80;99.90;;;;;;5006747;28;20473;-71
2023/02/24 05:59:31;;;;;;;7.93;2.60;;;5.80;99.90;;;;;;5000239;28;20429;-71
2023/02/24 06:02:05;;;;;;;6.20;1.73;;;5.80;99.90;;;;;;4997450;28;20432;-71
2023/02/24 06:04:49;;;;;;;6.03;2.53;;;5.70;99.90;;;;;;5001622;28;20453;-71
2023/02/24 06:07:18;;;;;;;1.67;1.30;;;5.70;99.90;;;;;;5002275;28;20466;-71
2023/02/24 06:09:48;;;;;;;5.47;1.53;;;5.60;99.90;;;;;;4997025;28;20422;-72
2023/02/24 06:12:16;;;;;;;2.43;1.90;;;5.60;99.90;;;;;;4999876;28;20559;-72
2023/02/24 06:14:46;;;;;;;2.50;1.87;;;5.70;99.90;;;;;;5000943;28;20461;-71
2023/02/24 06:17:15;;;;;;;9.03;4.10;;;5.70;99.90;;;;;;5003791;28;20831;-71
2023/02/24 06:19:43;;;;;;;10.13;2.70;;;5.80;99.90;;;;;;5004697;28;20469;-71
2023/02/24 06:22:14;;;;;;;1.43;1.33;;;5.80;99.90;;;;;;5001834;28;20486;-71
2023/02/24 06:24:43;;;;;;;4.10;1.87;;;5.70;99.90;;;;;;5005269;28;20429;-70
2023/02/24 06:27:16;;;;;;;2.93;2.47;;;5.70;99.90;;;;;;5004298;28;21055;-71
2023/02/24 06:29:43;;;;;;;5.57;3.47;;;5.70;99.90;;;;;;5002995;28;20508;-70
2023/02/24 06:32:11;;;;;;;6.43;2.70;;;5.70;99.90;;;;;;5004413;28;20829;-70
2023/02/24 06:34:40;;;;;;;5.00;2.30;;;5.70;99.90;;;;;;5003062;28;20455;-71
2023/02/24 06:37:11;;;;;;;3.70;2.53;;;5.70;99.90;;;;;;4996812;28;20540;-71
2023/02/24 06:39:40;;;;;;;2.60;1.80;;;5.70;99.90;;;;;;4997143;28;20468;-70
2023/02/24 06:42:07;;;;;;;5.97;3.03;;;5.70;99.90;;;;;;4990096;28;20948;-71
2023/02/24 06:44:37;;;;;;;3.20;2.73;;;5.60;99.90;;;;;;5003062;28;20519;-71
2023/02/24 06:47:05;;;;;;;3.03;1.63;;;5.60;99.90;;;;;;5004275;28;20539;-70
2023/02/24 06:49:32;;;;;;;3.50;1.70;;;5.50;99.90;;;;;;5000117;28;20465;-71
2023/02/24 06:52:02;;;;;;;11.57;1.97;;;5.50;99.90;;;;;;5003648;28;20432;-70
2023/02/24 06:54:34;;;;;;;2.23;2.07;;;5.60;99.90;;;;;;5007991;28;20493;-71
2023/02/24 06:57:03;;;;;;;3.13;1.50;;;5.50;99.90;;;;;;5005319;28;20504;-71
2023/02/24 06:59:30;;;;;;;2.60;0.90;;;5.50;99.90;;;;;;5004845;28;20842;-71
2023/02/24 07:02:00;;;;;;;5.50;1.70;;;5.50;99.90;;;;;;5004831;28;20435;-71
2023/02/24 07:04:27;;;;;;;2.43;1.93;;;5.60;99.90;;;;;;5004902;28;20905;-71
2023/02/24 07:07:01;;;;;;;2.00;1.83;;;5.60;99.90;;;;;;4999402;28;20458;-71
2023/02/24 07:09:30;;;;;;;10.17;1.80;;;5.60;99.90;;;;;;4998845;28;20756;-71
2023/02/24 07:12:01;;;;;;;1.93;1.47;;;5.50;99.90;;;;;;4999317;28;20920;-71
2023/02/24 07:14:32;;;;;;;6.83;1.80;;;5.50;99.90;;;;;;5005050;28;20474;-71
2023/02/24 07:16:59;;;;;;;3.33;1.47;;;5.50;99.90;;;;;;5001850;28;21002;-71
2023/02/24 07:19:29;;;;;;;16.40;2.03;;;5.50;99.90;;;;;;4998037;28;20489;-70
2023/02/24 07:21:59;;;;;;;2.70;1.60;;;5.40;99.90;;;;;;5001926;28;20509;-71
2023/02/24 07:24:34;;;;;;;5.20;1.80;;;5.30;99.90;;;;;;5014706;28;20461;-70
2023/02/24 07:27:04;;;;;;;2.03;1.00;;;5.30;99.90;;;;;;5013673;28;20463;-69
2023/02/24 07:29:32;;;;;;;6.20;1.30;;;5.20;99.90;;;;;;5005661;28;20439;-70
2023/02/24 07:32:01;;;;;;;7.80;1.43;;;5.30;99.90;;;;;;4996506;28;20527;-70
2023/02/24 07:34:32;;;;;;;4.20;1.30;;;5.30;99.90;;;;;;5002644;28;20463;-71
2023/02/24 07:37:05;;;;;;;14.00;1.70;;;5.50;99.90;;;;;;5005728;28;20960;-69
2023/02/24 07:39:35;;;;;;;9.90;1.70;;;5.60;99.90;;;;;;5002976;28;21047;-70
2023/02/24 07:42:02;;;;;;;3.20;1.73;;;5.60;99.90;;;;;;5003189;28;20440;-71
2023/02/24 07:44:29;;;;;;;6.83;1.73;;;5.50;99.90;;;;;;5000745;28;20496;-71
2023/02/24 07:46:58;;;;;;;12.90;1.73;;;5.40;99.90;;;;;;5003020;28;20476;-71
2023/02/24 07:49:26;;;;;;;2.37;0.97;;;5.50;99.90;;;;;;5012700;28;20438;-70
2023/02/24 07:51:56;;;;;;;1.60;1.20;;;5.40;99.90;;;;;;5007900;28;20498;-71
2023/02/24 07:54:26;;;;;;;6.53;1.90;;;5.50;99.90;;;;;;5008837;28;20481;-70
2023/02/24 07:56:57;;;;;;;3.40;1.57;;;5.50;99.90;;;;;;5005405;28;21196;-71
2023/02/24 07:59:26;;;;;;;12.57;2.47;;;5.50;99.90;;;;;;5003044;28;20427;-71
2023/02/24 08:01:55;;;;;;;4.40;1.63;;;5.60;99.90;;;;;;5001752;28;20435;-70
2023/02/24 08:04:25;;;;;;;6.70;2.20;;;5.70;99.90;;;;;;5002744;28;20466;-71
2023/02/24 08:06:55;;;;;;;16.03;2.47;;;5.80;99.90;;;;;;5010820;28;20455;-71
2023/02/24 08:12:07;;;;;;;5.03;2.03;;;5.70;99.90;;;;;;5004435;28;20551;-70
2023/02/24 08:14:43;;;;;;;3.20;2.13;;;5.70;99.90;;;;;;5004879;28;20466;-71
2023/02/24 08:17:11;;;;;;;8.50;3.67;;;5.70;99.90;;;;;;5008283;28;20477;-71
2023/02/24 08:19:39;;;;;;;3.90;2.97;;;5.70;99.90;;;;;;5011192;28;20470;-71
2023/02/24 08:22:18;;;;;;;2.90;1.90;;;5.80;99.90;;;;;;5008388;28;20435;-71
2023/02/24 08:24:48;;;;;;;4.77;4.03;;;5.90;99.90;;;;;;5008988;28;20806;-70
2023/02/24 08:27:18;;;;;;;2.20;1.80;;;5.90;99.90;;;;;;5004537;28;20477;-70
2023/02/24 08:29:58;;;;;;;2.57;2.00;;;5.90;99.90;;;;;;5001660;28;20466;-71
2023/02/24 08:32:28;;;;;;;1.73;1.27;;;5.90;99.90;;;;;;5010844;28;20471;-70
2023/02/24 08:35:01;;;;;;;6.33;1.93;;;5.80;99.90;;;;;;5005877;28;20448;-70
2023/02/24 08:37:32;;;;;;;2.47;2.20;;;5.80;99.90;;;;;;5004901;28;20451;-71
2023/02/24 08:40:00;;;;;;;7.60;2.23;;;5.80;99.90;;;;;;5001199;28;20432;-71
2023/02/24 08:42:33;;;;;;;7.93;1.83;;;5.90;99.90;;;;;;5013143;28;20519;-71
2023/02/24 08:45:00;;;;;;;2.13;1.90;;;5.80;99.90;;;;;;5000731;28;20424;-70
2023/02/24 08:47:29;;;;;;;6.20;2.23;;;5.70;99.90;;;;;;5004652;28;20580;-72
2023/02/24 08:49:59;;;;;;;3.50;2.50;;;5.70;99.90;;;;;;5006061;28;20443;-71
2023/02/24 08:52:27;;;;;;;2.50;2.30;;;5.80;99.90;;;;;;5011235;28;20517;-73
2023/02/24 08:54:58;;;;;;;2.60;2.20;;;6.00;99.90;;;;;;5006575;28;20554;-72
2023/02/24 08:57:25;;;;;;;9.07;3.33;;;6.00;99.90;;;;;;5009179;28;20481;-73
2023/02/24 08:59:57;;;;;;;1.70;1.60;;;6.10;99.90;;;;;;5002960;28;20440;-72
2023/02/24 09:02:28;;;;;;;3.77;2.47;;;6.00;99.90;;;;;;5005138;28;20960;-71
2023/02/24 09:04:58;;;;;;;3.23;2.07;;;6.10;99.90;;;;;;5008463;28;20438;-72
2023/02/24 09:07:26;;;;;;;13.10;3.30;;;6.10;99.90;;;;;;5000653;28;20568;-72
2023/02/24 09:09:55;;;;;;;2.33;2.13;;;6.10;99.90;;;;;;5005437;28;20478;-71
2023/02/24 09:12:24;;;;;;;4.70;2.20;;;6.10;99.90;;;;;;4985346;28;20957;-71
2023/02/24 09:14:55;;;;;;;4.07;2.63;;;6.10;99.90;;;;;;5000741;28;20497;-71
2023/02/24 09:17:38;;;;;;;7.40;3.63;;;6.20;99.90;;;;;;5007209;28;20436;-72
2023/02/24 09:20:55;;;;;;;14.07;3.13;;;6.40;99.90;;;;;;5008455;28;20451;-71
2023/02/24 09:23:28;;;;;;;5.53;2.30;;;6.30;99.90;;;;;;5007676;28;20442;-72
2023/02/24 09:25:56;;;;;;;3.00;1.93;;;6.30;99.90;;;;;;5003151;28;20450;-72
2023/02/24 09:28:24;;;;;;;5.13;2.20;;;6.30;99.90;;;;;;5000849;28;20437;-72
2023/02/24 09:30:54;;;;;;;2.73;2.53;;;6.20;99.90;;;;;;5003622;28;20880;-72
2023/02/24 09:33:24;;;;;;;1.60;1.20;;;6.20;99.90;;;;;;5006922;28;20500;-72
2023/02/24 09:36:08;;;;;;;13.47;2.00;;;6.10;99.90;;;;;;5009544;28;20551;-71
2023/02/24 09:41:31;;;;;;;3.57;2.30;;;5.90;99.90;;;;;;5007856;28;20975;-72
2023/02/24 09:44:06;;;;;;;3.20;1.70;;;5.80;99.90;;;;;;5007301;28;20955;-72
2023/02/24 09:46:41;;;;;;;5.60;1.93;;;5.80;99.90;;;;;;4997925;28;20447;-72
2023/02/24 09:49:16;;;;;;;3.53;1.47;;;5.90;99.90;;;;;;5004537;28;20460;-72
2023/02/24 09:51:52;;;;;;;2.03;1.67;;;5.70;99.90;;;;;;5005779;28;20908;-72
2023/02/24 09:54:23;;;;;;;2.20;1.53;;;5.70;99.90;;;;;;4993192;28;20424;-72
2023/02/24 09:57:06;;;;;;;1.17;1.03;;;5.80;99.90;;;;;;5024545;28;20470;-70
2023/02/24 09:59:49;;;;;;;2.17;1.97;;;5.70;99.90;;;;;;5004370;28;20472;-72
2023/02/24 10:02:33;;;;;;;2.43;2.00;;;5.70;99.90;;;;;;5004009;28;20428;-71
2023/02/24 10:05:09;;;;;;;9.60;1.60;;;5.70;99.90;;;;;;5001821;28;20905;-72
2023/02/24 10:07:39;;;;;;;5.10;1.93;;;5.60;99.90;;;;;;4995511;28;20474;-71
2023/02/24 10:10:19;;;;;;;2.47;2.23;;;5.50;99.90;;;;;;5006537;28;20539;-71
2023/02/24 10:12:51;;;;;;;3.53;1.20;;;5.40;99.90;;;;;;5003538;28;20434;-72
2023/02/24 10:15:43;;;;;;;5.53;1.80;;;5.30;99.90;;;;;;5001449;28;20527;-71
2023/02/24 10:18:30;;;;;;;2.93;2.37;;;5.40;99.90;;;;;;5006364;28;20456;-71
2023/02/24 10:21:02;;;;;;;3.10;1.43;;;5.40;99.90;;;;;;4997182;28;20477;-71
2023/02/24 10:23:43;;;;;;;2.13;1.83;;;5.30;99.90;;;;;;5005489;28;20540;-72
2023/02/24 10:26:30;;;;;;;3.67;2.40;;;5.40;99.90;;;;;;5005279;28;20560;-72
2023/02/24 10:29:07;;;;;;;5.10;2.30;;;5.40;99.90;;;;;;5005679;28;20428;-71
2023/02/24 10:31:44;;;;;;;6.43;2.57;;;5.40;99.90;;;;;;5004685;28;20449;-72
2023/02/24 10:34:18;;;;;;;5.83;2.27;;;5.40;99.90;;;;;;5005940;28;20436;-72
2023/02/24 10:36:49;;;;;;;5.07;2.07;;;5.40;99.90;;;;;;5005370;28;20809;-72
2023/02/24 10:39:19;;;;;;;3.87;2.87;;;5.60;99.90;;;;;;5005356;28;20461;-71
2023/02/24 10:41:48;;;;;;;6.33;2.10;;;5.70;99.90;;;;;;5001943;28;20462;-72
2023/02/24 10:44:23;;;;;;;5.13;1.83;;;5.90;99.90;;;;;;5001607;28;20499;-72
2023/02/24 10:47:10;;;;;;;2.60;1.60;;;5.70;99.90;;;;;;5005122;28;20473;-72
2023/02/24 10:49:49;;;;;;;5.33;2.50;;;5.50;99.90;;;;;;5008089;28;20919;-71
2023/02/24 10:52:35;;;;;;;6.23;2.97;;;5.40;99.90;;;;;;5003646;28;20949;-71
2023/02/24 10:55:07;;;;;;;4.23;2.27;;;5.50;99.90;;;;;;4997377;28;20920;-72
2023/02/24 10:57:45;;;;;;;5.00;4.50;;;5.50;99.90;;;;;;5002073;28;20437;-72
2023/02/24 11:00:50;;;;;;;14.87;1.93;;;5.60;99.90;;;;;;5003770;28;20776;-72
2023/02/24 11:03:34;;;;;;;1.70;1.60;;;5.50;99.90;;;;;;4996913;28;20507;-72
2023/02/24 11:06:19;;;;;;;8.40;1.87;;;5.50;99.90;;;;;;5001723;28;20521;-71
2023/02/24 11:09:07;;;;;;;1.30;1.10;;;5.50;99.90;;;;;;5008981;28;20416;-71
2023/02/24 11:17:13;;;;;;;4.60;2.13;;;5.50;99.90;;;;;;4997713;28;20824;-73
2023/02/24 11:17:25;;;;;;;10.97;2.50;;;5.50;99.90;;;;;;5008299;28;20561;-71
2023/02/24 11:19:59;;;;;;;2.13;1.70;;;5.40;99.90;;;;;;5002742;28;20980;-71
2023/02/24 11:22:32;;;;;;;9.80;2.50;;;5.50;99.90;;;;;;5001059;28;20542;-72
2023/02/24 11:25:05;;;;;;;3.27;1.90;;;5.50;99.90;;;;;;5005886;28;20486;-70
2023/02/24 11:27:32;;;;;;;1.60;1.03;;;5.50;99.90;;;;;;5003554;28;20487;-70
2023/02/24 11:30:15;;;;;;;10.60;4.00;;;5.40;99.90;;;;;;5002665;28;20440;-71
2023/02/24 11:33:07;;;;;;;10.37;4.83;;;5.30;99.90;;;;;;5003963;28;20493;-71
2023/02/24 11:35:40;;;;;;;2.27;2.07;;;5.30;99.90;;;;;;5002506;28;20456;-70
2023/02/24 11:38:26;;;;;;;2.33;2.13;;;5.40;99.90;;;;;;4998958;28;20560;-70
2023/02/24 11:41:01;;;;;;;2.73;1.60;;;5.30;99.90;;;;;;4998138;28;20432;-70
2023/02/24 11:43:33;;;;;;;2.53;2.27;;;5.20;99.90;;;;;;5002403;28;20478;-71
2023/02/24 11:46:05;;;;;;;5.73;3.23;;;5.10;99.90;;;;;;5003703;28;20880;-71
2023/02/24 11:48:38;;;;;;;3.63;3.33;;;5.30;99.90;;;;;;4998811;28;20531;-71
2023/02/24 11:51:07;;;;;;;3.43;2.70;;;5.50;99.90;;;;;;4996656;28;20530;-71
2023/02/24 11:53:40;;;;;;;4.03;2.00;;;5.50;99.90;;;;;;5002911;28;20840;-71
2023/02/24 11:56:11;;;;;;;3.90;1.53;;;5.60;99.90;;;;;;4997475;28;20488;-71
2023/02/24 11:58:44;;;;;;;4.57;1.77;;;5.60;99.90;;;;;;5006712;28;20457;-70
2023/02/24 12:01:14;;;;;;;3.23;2.33;;;5.30;99.90;;;;;;5006777;28;20439;-70
2023/02/24 12:03:50;;;;;;;3.57;1.93;;;5.10;99.90;;;;;;5005040;28;20463;-70
2023/02/24 12:06:25;;;;;;;7.00;2.60;;;5.00;99.90;;;;;;5003173;28;21428;-70
2023/02/24 12:09:00;;;;;;;6.47;2.10;;;5.00;99.90;;;;;;4998930;28;20470;-71
2023/02/24 12:11:37;;;;;;;3.40;3.03;;;5.10;99.90;;;;;;5006921;28;20450;-71
2023/02/24 12:14:15;;;;;;;6.20;2.73;;;5.00;99.90;;;;;;5010029;28;20559;-70
2023/02/24 12:16:46;;;;;;;2.07;1.30;;;4.90;99.90;;;;;;5010142;28;20972;-71
2023/02/24 12:19:19;;;;;;;5.03;1.80;;;4.90;99.90;;;;;;5008173;28;20534;-70
2023/02/24 12:21:51;;;;;;;2.80;1.67;;;4.90;99.90;;;;;;4997774;28;20462;-71
2023/02/24 12:24:21;;;;;;;7.37;3.37;;;5.00;99.90;;;;;;5019604;28;20464;-70
2023/02/24 12:27:01;;;;;;;4.20;3.80;;;5.00;99.90;;;;;;5026334;28;20483;-70
2023/02/24 12:29:47;;;;;;;4.90;3.43;;;5.10;99.90;;;;;;5003460;28;20475;-71
2023/02/24 12:32:23;;;;;;;4.97;4.57;;;5.10;99.90;;;;;;5001583;28;20428;-69
2023/02/24 12:35:02;;;;;;;4.13;3.27;;;4.90;99.90;;;;;;5005181;28;20432;-71
2023/02/24 12:37:55;;;;;;;5.27;3.83;;;4.80;99.90;;;;;;5006615;28;20463;-71
2023/02/24 12:40:31;;;;;;;5.33;4.43;;;4.90;99.90;;;;;;4999538;28;20780;-71
2023/02/24 12:43:13;;;;;;;19.30;5.53;;;4.90;99.90;;;;;;5010460;28;20920;-71
2023/02/24 12:45:50;;;;;;;5.43;2.97;;;5.00;99.90;;;;;;5000988;28;20462;-71
2023/02/24 12:48:32;;;;;;;6.03;4.27;;;4.80;99.90;;;;;;5007104;28;20459;-71
2023/02/24 12:51:04;;;;;;;2.10;1.90;;;4.90;99.90;;;;;;5007055;28;20439;-70
2023/02/24 12:53:40;;;;;;;3.20;2.07;;;5.00;99.90;;;;;;5002873;28;20440;-71
2023/02/24 12:56:18;;;;;;;4.30;3.07;;;5.00;99.90;;;;;;5011686;28;20486;-71
2023/02/24 12:58:48;;;;;;;8.90;3.77;;;5.00;99.90;;;;;;5011169;28;20474;-71
2023/02/24 13:01:25;;;;;;;10.10;2.73;;;4.90;99.90;;;;;;5001111;28;20944;-71
2023/02/24 13:04:25;;;;;;;6.30;2.57;;;4.80;99.90;;;;;;5005653;28;20431;-71
2023/02/24 13:07:22;;;;;;;8.30;3.03;;;4.90;99.90;;;;;;5005086;28;20524;-71
2023/02/24 13:10:00;;;;;;;5.57;4.30;;;4.80;99.90;;;;;;5004814;28;20515;-71
2023/02/24 13:12:37;;;;;;;4.70;3.47;;;4.80;99.90;;;;;;5006195;28;20430;-71
2023/02/24 13:15:05;;;;;;;9.10;3.50;;;4.90;99.90;;;;;;5007531;28;20481;-71
2023/02/24 13:17:32;;;;;;;8.80;5.30;;;4.80;99.90;;;;;;5009222;28;20990;-72
2023/02/24 13:20:13;;;;;;;4.50;2.87;;;4.80;99.90;;;;;;5010120;28;20486;-71
2023/02/24 13:22:43;;;;;;;3.50;2.33;;;4.90;99.90;;;;;;5000619;28;20737;-72
2023/02/24 13:25:20;;;;;;;3.63;3.33;;;4.90;99.90;;;;;;5006372;28;20541;-71
2023/02/24 13:27:58;;;;;;;5.53;5.13;;;4.90;99.90;;;;;;5006177;28;20909;-71
2023/02/24 13:30:33;;;;;;;6.30;4.90;;;4.80;99.90;;;;;;5011266;28;20455;-71
2023/02/24 13:33:04;;;;;;;2.77;2.47;;;4.80;99.90;;;;;;5009642;28;20431;-70
2023/02/24 13:35:34;;;;;;;4.00;3.13;;;5.00;99.90;;;;;;5010138;28;21011;-71
2023/02/24 13:38:24;;;;;;;4.03;2.47;;;5.00;99.90;;;;;;4999364;28;20461;-70
2023/02/24 13:40:51;;;;;;;5.13;3.97;;;4.90;99.90;;;;;;5003087;28;20448;-70